createdAt,value
2022-08-17T00:00:43.456Z,100641.97
2022-08-17T00:03:27.453Z,100646.38
2022-08-17T00:06:17.796Z,100643.66
2022-08-17T00:09:00.025Z,100650.19
2022-08-17T00:11:37.980Z,100658.06
2022-08-17T00:14:13.072Z,100649.06
2022-08-17T00:16:50.435Z,100654.38
2022-08-17T00:19:27.161Z,100657.44
2022-08-17T00:22:32.563Z,100652.22
2022-08-17T00:24:47.912Z,100654.69
2022-08-17T00:27:15.807Z,100660.78
2022-08-17T00:29:46.134Z,100659.16
2022-08-17T00:33:14.541Z,100660.75
2022-08-17T00:35:07.260Z,100654.63
2022-08-17T00:37:37.305Z,100648.81
2022-08-17T00:40:07.224Z,100649.06
2022-08-17T00:42:36.516Z,100648.53
2022-08-17T00:45:07.796Z,100651.09
2022-08-17T00:47:38.804Z,100651.94
2022-08-17T00:50:10.278Z,100655.50
2022-08-17T00:52:56.567Z,100652.97
2022-08-17T00:55:26.971Z,100656.28
2022-08-17T00:57:58.844Z,100653.47
2022-08-17T01:00:33.392Z,100652.34
2022-08-17T01:03:10.709Z,100649.00
2022-08-17T01:05:42.328Z,100649.50
2022-08-17T01:08:15.491Z,100641.28
2022-08-17T01:10:59.865Z,100636.91
2022-08-17T01:13:42.110Z,100641.13
2022-08-17T01:16:33.782Z,100643.63
2022-08-17T01:19:11.749Z,100634.22
2022-08-17T01:22:06.537Z,100639.63
2022-08-17T01:24:37.804Z,100641.00
2022-08-17T01:27:10.264Z,100631.94
2022-08-17T01:29:43.429Z,100633.56
2022-08-17T01:32:16.294Z,100628.59
2022-08-17T01:34:50.266Z,100620.88
2022-08-17T01:37:27.964Z,100628.56
2022-08-17T01:40:41.109Z,100625.38
2022-08-17T01:43:33.622Z,100619.91
2022-08-17T01:46:03.999Z,100628.06
2022-08-17T01:48:36.933Z,100624.69
2022-08-17T01:51:06.624Z,100624.13
2022-08-17T01:53:43.255Z,100618.94
2022-08-17T01:56:16.360Z,100608.84
2022-08-17T01:58:46.448Z,100619.41
2022-08-17T02:01:18.917Z,100612.78
2022-08-17T02:03:59.446Z,100617.03
2022-08-17T02:06:52.475Z,100613.25
2022-08-17T02:09:29.734Z,100615.94
2022-08-17T02:12:38.020Z,100602.25
2022-08-17T02:14:53.176Z,100603.44
2022-08-17T02:17:21.918Z,100599.97
2022-08-17T02:19:51.694Z,100591.44
2022-08-17T02:22:23.941Z,100592.94
2022-08-17T02:25:00.983Z,100595.06
2022-08-17T02:27:30.775Z,100589.53
2022-08-17T02:29:59.852Z,100592.59
2022-08-17T02:32:28.771Z,100589.91
2022-08-17T02:34:59.607Z,100591.88
2022-08-17T02:37:30.785Z,100600.16
2022-08-17T02:40:00.245Z,100610.38
2022-08-17T02:42:38.702Z,100606.66
2022-08-17T02:45:15.283Z,100612.09
2022-08-17T02:47:45.453Z,100617.22
2022-08-17T02:50:17.055Z,100614.72
2022-08-17T02:52:47.479Z,100609.28
2022-08-17T02:55:34.950Z,100609.78
2022-08-17T02:58:04.526Z,100615.81
2022-08-17T03:00:37.040Z,100619.41
2022-08-17T03:03:06.551Z,100617.47
2022-08-17T03:05:38.911Z,100618.84
2022-08-17T03:08:10.439Z,100615.63
2022-08-17T03:10:43.835Z,100616.84
2022-08-17T03:13:15.955Z,100624.59
2022-08-17T03:15:48.839Z,100624.72
2022-08-17T03:18:24.716Z,100628.91
2022-08-17T03:21:00.126Z,100624.22
2022-08-17T03:23:29.731Z,100619.75
2022-08-17T03:26:00.666Z,100627.66
2022-08-17T03:28:31.037Z,100623.47
2022-08-17T03:30:59.784Z,100625.91
2022-08-17T03:33:28.313Z,100629.78
2022-08-17T03:35:59.793Z,100627.09
2022-08-17T03:38:28.023Z,100626.88
2022-08-17T03:40:59.925Z,100624.13
2022-08-17T03:43:32.868Z,100625.22
2022-08-17T03:46:27.591Z,100617.50
2022-08-17T03:49:27.713Z,100622.41
2022-08-17T03:52:18.813Z,100624.91
2022-08-17T03:55:07.326Z,100625.72
2022-08-17T03:57:37.282Z,100625.66
2022-08-17T04:00:06.966Z,100619.31
2022-08-17T04:02:37.362Z,100630.09
2022-08-17T04:05:06.324Z,100622.53
2022-08-17T04:07:36.706Z,100617.72
2022-08-17T04:10:05.252Z,100623.75
2022-08-17T04:12:51.450Z,100617.66
2022-08-17T04:15:20.130Z,100616.28
2022-08-17T04:17:49.166Z,100621.44
2022-08-17T04:20:25.836Z,100613.19
2022-08-17T04:23:02.359Z,100619.75
2022-08-17T04:25:42.197Z,100617.28
2022-08-17T04:28:15.748Z,100617.06
2022-08-17T04:30:46.646Z,100614.59
2022-08-17T04:33:26.920Z,100611.88
2022-08-17T04:36:01.685Z,100610.19
2022-08-17T04:38:37.774Z,100617.63
2022-08-17T04:41:31.316Z,100613.81
2022-08-17T04:44:01.866Z,100608.94
2022-08-17T04:46:35.644Z,100607.91
2022-08-17T04:49:07.956Z,100606.81
2022-08-17T04:51:54.570Z,100610.09
2022-08-17T04:54:26.393Z,100611.78
2022-08-17T04:56:55.230Z,100609.03
2022-08-17T04:59:24.259Z,100609.03
2022-08-17T05:01:52.903Z,100606.91
2022-08-17T05:04:34.288Z,100618.72
2022-08-17T05:07:05.739Z,100612.94
2022-08-17T05:09:35.755Z,100610.22
2022-08-17T05:12:13.710Z,100603.09
2022-08-17T05:14:43.101Z,100609.41
2022-08-17T05:17:11.837Z,100615.16
2022-08-17T05:19:39.797Z,100607.97
2022-08-17T05:22:09.104Z,100604.97
2022-08-17T05:24:43.504Z,100619.50
2022-08-17T05:27:23.814Z,100612.38
2022-08-17T05:29:52.369Z,100614.53
2022-08-17T05:32:39.406Z,100606.28
2022-08-17T05:35:09.120Z,100608.75
2022-08-17T05:37:39.207Z,100605.34
2022-08-17T05:40:08.405Z,100604.50
2022-08-17T05:42:37.687Z,100611.38
2022-08-17T05:45:15.119Z,100613.25
2022-08-17T05:47:49.748Z,100626.19
2022-08-17T05:50:33.117Z,100611.59
2022-08-17T05:53:40.805Z,100624.78
2022-08-17T05:56:43.775Z,100617.59
2022-08-17T05:59:49.818Z,100621.16
2022-08-17T06:02:44.187Z,100619.78
2022-08-17T06:05:54.534Z,100620.00
2022-08-17T06:08:48.344Z,100625.75
2022-08-17T06:11:31.354Z,100624.56
2022-08-17T06:14:07.827Z,100623.75
2022-08-17T06:16:46.632Z,100623.75
2022-08-17T06:19:38.547Z,100627.22
2022-08-17T06:22:10.246Z,100626.78
2022-08-17T06:25:02.677Z,100635.81
2022-08-17T06:27:53.718Z,100632.41
2022-08-17T06:30:26.136Z,100628.81
2022-08-17T06:33:06.017Z,100634.41
2022-08-17T06:35:57.014Z,100633.19
2022-08-17T06:39:12.593Z,100630.88
2022-08-17T06:42:05.306Z,100638.75
2022-08-17T06:44:50.927Z,100631.53
2022-08-17T06:47:55.713Z,100629.59
2022-08-17T06:51:00.245Z,100631.09
2022-08-17T06:54:08.362Z,100631.69
2022-08-17T06:56:53.694Z,100633.59
2022-08-17T06:59:54.912Z,100618.44
2022-08-17T07:02:51.973Z,100623.25
2022-08-17T07:05:38.826Z,100625.91
2022-08-17T07:08:14.981Z,100629.72
2022-08-17T07:10:45.799Z,100629.63
2022-08-17T07:13:42.193Z,100623.00
2022-08-17T07:16:27.719Z,100617.69
2022-08-17T07:18:58.780Z,100613.66
2022-08-17T07:21:52.749Z,100609.94
2022-08-17T07:24:43.881Z,100623.66
2022-08-17T07:27:22.184Z,100618.84
2022-08-17T07:30:05.635Z,100626.91
2022-08-17T07:32:41.072Z,100625.69
2022-08-17T07:35:41.463Z,100627.22
2022-08-17T07:38:24.691Z,100631.09
2022-08-17T07:40:58.275Z,100629.50
2022-08-17T07:43:38.443Z,100625.84
2022-08-17T07:46:46.988Z,100625.84
2022-08-17T07:49:15.778Z,100624.34
2022-08-17T07:51:53.872Z,100627.16
2022-08-17T07:54:31.116Z,100619.25
2022-08-17T07:57:10.732Z,100614.53
2022-08-17T07:59:41.247Z,100611.03
2022-08-17T08:02:38.479Z,100604.91
2022-08-17T08:05:32.883Z,100610.00
2022-08-17T08:08:43.561Z,100597.31
2022-08-17T08:11:15.688Z,100594.03
2022-08-17T08:13:46.561Z,100598.13
2022-08-17T08:16:29.444Z,100600.06
2022-08-17T08:19:01.715Z,100598.38
2022-08-17T08:21:39.756Z,100590.22
2022-08-17T08:24:16.392Z,100589.25
2022-08-17T08:27:34.625Z,100589.81
2022-08-17T08:30:18.676Z,100590.66
2022-08-17T08:33:08.701Z,100581.72
2022-08-17T08:36:03.767Z,100579.78
2022-08-17T08:38:53.987Z,100579.69
2022-08-17T08:41:52.077Z,100570.84
2022-08-17T08:44:59.899Z,100569.41
2022-08-17T08:48:05.197Z,100565.56
2022-08-17T08:51:05.449Z,100564.41
2022-08-17T08:54:08.112Z,100558.38
2022-08-17T09:00:11.153Z,100559.47
2022-08-17T09:03:02.853Z,100550.75
2022-08-17T09:06:32.277Z,100559.56
2022-08-17T09:09:16.382Z,100574.50
2022-08-17T09:12:32.665Z,100554.50
2022-08-17T09:15:27.849Z,100556.91
2022-08-17T09:19:01.473Z,100552.84
2022-08-17T09:21:00.310Z,100556.38
2022-08-17T09:23:37.043Z,100558.00
2022-08-17T09:26:23.071Z,100555.88
2022-08-17T09:28:54.324Z,100567.13
2022-08-17T09:31:47.044Z,100558.72
2022-08-17T09:34:29.527Z,100562.59
2022-08-17T09:37:33.289Z,100564.66
2022-08-17T09:40:26.728Z,100569.78
2022-08-17T09:43:19.131Z,100564.06
2022-08-17T09:45:58.929Z,100561.84
2022-08-17T09:48:50.779Z,100566.56
2022-08-17T09:51:22.757Z,100569.06
2022-08-17T09:54:01.829Z,100572.88
2022-08-17T09:57:29.125Z,100575.38
2022-08-17T10:00:02.168Z,100578.91
2022-08-17T10:02:57.735Z,100581.91
2022-08-17T10:06:06.601Z,100579.09
2022-08-17T10:08:52.755Z,100584.72
2022-08-17T10:12:29.854Z,100580.47
2022-08-17T10:15:19.985Z,100582.41
2022-08-17T10:18:30.555Z,100579.78
2022-08-17T10:21:37.996Z,100577.81
2022-08-17T10:24:30.452Z,100574.53
2022-08-17T10:27:03.967Z,100580.13
2022-08-17T10:29:47.357Z,100585.47
2022-08-17T10:32:57.116Z,100573.53
2022-08-17T10:35:26.843Z,100564.00
2022-08-17T10:38:34.458Z,100565.16
2022-08-17T10:41:32.578Z,100565.63
2022-08-17T10:44:56.945Z,100550.09
2022-08-17T10:47:55.186Z,100553.16
2022-08-17T10:50:46.471Z,100551.16
2022-08-17T10:53:33.726Z,100552.28
2022-08-17T10:56:22.540Z,100542.22
2022-08-17T10:58:58.603Z,100543.53
2022-08-17T11:01:42.259Z,100527.09
2022-08-17T11:04:36.907Z,100537.31
2022-08-17T11:07:26.869Z,100523.25
2022-08-17T11:10:19.268Z,100526.50
2022-08-17T11:12:54.500Z,100530.81
2022-08-17T11:16:04.826Z,100534.13
2022-08-17T11:19:08.613Z,100521.00
2022-08-17T11:22:19.489Z,100527.91
2022-08-17T11:24:54.856Z,100522.00
2022-08-17T11:27:31.870Z,100528.28
2022-08-17T11:30:08.086Z,100515.53
2022-08-17T11:32:47.182Z,100516.28
2022-08-17T11:35:40.712Z,100503.63
2022-08-17T11:38:29.627Z,100498.00
2022-08-17T11:41:28.272Z,100513.47
2022-08-17T11:44:19.759Z,100504.50
2022-08-17T11:48:08.975Z,100509.41
2022-08-17T11:51:03.438Z,100508.72
2022-08-17T11:53:37.961Z,100503.41
2022-08-17T11:56:35.363Z,100501.41
2022-08-17T11:59:26.471Z,100504.66
2022-08-17T12:01:57.315Z,100489.69
2022-08-17T12:04:32.305Z,100489.88
2022-08-17T12:07:08.422Z,100494.06
2022-08-17T12:09:45.717Z,100483.19
2022-08-17T12:12:34.118Z,100493.44
2022-08-17T12:15:12.090Z,100482.50
2022-08-17T12:17:42.944Z,100484.16
2022-08-17T12:20:24.323Z,100488.38
2022-08-17T12:23:03.813Z,100491.03
2022-08-17T12:25:44.611Z,100491.88
2022-08-17T12:28:27.105Z,100493.75
2022-08-17T12:31:03.235Z,100489.19
2022-08-17T12:33:34.763Z,100494.31
2022-08-17T12:36:11.177Z,100487.69
2022-08-17T12:38:39.071Z,100482.88
2022-08-17T12:41:27.893Z,100476.66
2022-08-17T12:44:20.811Z,100478.06
2022-08-17T12:47:21.615Z,100471.28
2022-08-17T12:50:04.058Z,100466.22
2022-08-17T12:52:34.912Z,100463.47
2022-08-17T12:55:26.270Z,100464.13
2022-08-17T12:58:02.322Z,100465.22
2022-08-17T13:00:49.679Z,100458.22
2022-08-17T13:03:35.706Z,100458.97
2022-08-17T13:06:13.000Z,100446.81
2022-08-17T13:08:49.426Z,100449.75
2022-08-17T13:11:25.178Z,100461.69
2022-08-17T13:13:59.202Z,100463.66
2022-08-17T13:16:40.827Z,100458.47
2022-08-17T13:19:16.806Z,100452.16
2022-08-17T13:21:49.019Z,100463.19
2022-08-17T13:24:26.429Z,100466.47
2022-08-17T13:27:08.135Z,100467.75
2022-08-17T13:29:56.130Z,100475.38
2022-08-17T13:32:33.969Z,100470.94
2022-08-17T13:35:35.373Z,100480.34
2022-08-17T13:38:15.661Z,100481.72
2022-08-17T13:40:53.092Z,100468.25
2022-08-17T13:43:45.186Z,100475.09
2022-08-17T13:46:31.295Z,100476.75
2022-08-17T13:49:06.005Z,100473.91
2022-08-17T13:51:46.061Z,100468.69
2022-08-17T13:54:25.041Z,100467.81
2022-08-17T13:57:02.751Z,100473.53
2022-08-17T13:59:54.369Z,100472.16
2022-08-17T14:02:27.519Z,100472.44
2022-08-17T14:04:57.538Z,100466.72
2022-08-17T14:07:39.825Z,100464.88
2022-08-17T14:10:17.466Z,100462.78
2022-08-17T14:12:47.172Z,100466.50
2022-08-17T14:15:20.773Z,100462.22
2022-08-17T14:17:50.505Z,100461.09
2022-08-17T14:20:21.807Z,100451.44
2022-08-17T14:22:54.346Z,100460.22
2022-08-17T14:25:27.299Z,100451.72
2022-08-17T14:27:56.559Z,100447.25
2022-08-17T14:30:28.935Z,100455.31
2022-08-17T14:32:58.947Z,100454.03
2022-08-17T14:35:31.001Z,100449.94
2022-08-17T14:38:05.866Z,100447.81
2022-08-17T14:40:58.489Z,100447.66
2022-08-17T14:43:29.835Z,100451.44
2022-08-17T14:46:03.518Z,100450.66
2022-08-17T14:48:39.286Z,100447.50
2022-08-17T14:51:11.639Z,100446.22
2022-08-17T14:53:43.837Z,100442.59
2022-08-17T14:56:19.500Z,100439.34
2022-08-17T14:58:49.709Z,100445.06
2022-08-17T15:01:19.779Z,100435.25
2022-08-17T15:03:50.389Z,100435.75
2022-08-17T15:06:19.698Z,100429.69
2022-08-17T15:08:51.208Z,100426.38
2022-08-17T15:11:20.515Z,100439.78
2022-08-17T15:14:04.418Z,100437.50
2022-08-17T15:16:38.100Z,100430.41
2022-08-17T15:19:07.766Z,100434.81
2022-08-17T15:21:38.790Z,100442.03
2022-08-17T15:24:07.266Z,100431.50
2022-08-17T15:26:39.780Z,100436.81
2022-08-17T15:29:10.263Z,100440.00
2022-08-17T15:31:39.786Z,100434.03
2022-08-17T15:34:08.788Z,100425.53
2022-08-17T15:36:38.186Z,100430.81
2022-08-17T15:39:09.944Z,100430.13
2022-08-17T15:41:39.545Z,100433.38
2022-08-17T15:44:08.036Z,100434.28
2022-08-17T15:46:40.146Z,100438.25
2022-08-17T15:49:10.600Z,100438.81
2022-08-17T15:51:40.950Z,100443.66
2022-08-17T15:54:17.220Z,100448.50
2022-08-17T15:56:48.770Z,100457.97
2022-08-17T15:59:16.847Z,100450.28
2022-08-17T16:02:59.355Z,100451.84
2022-08-17T16:04:37.988Z,100455.91
2022-08-17T16:07:12.236Z,100460.47
2022-08-17T16:09:39.894Z,100474.03
2022-08-17T16:12:16.961Z,100479.47
2022-08-17T16:14:48.408Z,100478.75
2022-08-17T16:17:39.533Z,100486.53
2022-08-17T16:20:08.834Z,100483.06
2022-08-17T16:22:40.105Z,100481.41
2022-08-17T16:25:23.357Z,100489.66
2022-08-17T16:28:14.135Z,100499.09
2022-08-17T16:30:43.237Z,100501.16
2022-08-17T16:33:12.876Z,100516.94
2022-08-17T16:35:42.792Z,100517.72
2022-08-17T16:38:12.801Z,100528.56
2022-08-17T16:40:42.631Z,100520.72
2022-08-17T16:43:12.439Z,100520.72
2022-08-17T16:45:42.531Z,100523.97
2022-08-17T16:48:12.083Z,100532.91
2022-08-17T16:50:42.004Z,100534.53
2022-08-17T16:53:32.352Z,100533.06
2022-08-17T16:56:01.133Z,100532.22
2022-08-17T16:58:30.318Z,100539.47
2022-08-17T17:00:59.789Z,100533.16
2022-08-17T17:03:31.001Z,100539.97
2022-08-17T17:06:14.411Z,100539.28
2022-08-17T17:08:52.229Z,100544.41
2022-08-17T17:11:53.455Z,100537.75
2022-08-17T17:14:28.558Z,100532.75
2022-08-17T17:17:07.007Z,100546.03
2022-08-17T17:19:53.649Z,100535.03
2022-08-17T17:23:07.833Z,100532.28
2022-08-17T17:26:19.077Z,100527.13
2022-08-17T17:28:51.307Z,100528.03
2022-08-17T17:31:24.523Z,100525.19
2022-08-17T17:34:00.750Z,100522.88
2022-08-17T17:36:55.622Z,100522.34
2022-08-17T17:39:43.788Z,100520.13
2022-08-17T17:42:17.454Z,100524.13
2022-08-17T17:45:08.859Z,100523.31
2022-08-17T17:47:38.287Z,100520.97
2022-08-17T17:50:10.689Z,100517.25
2022-08-17T17:53:02.540Z,100517.47
2022-08-17T17:55:47.423Z,100519.69
2022-08-17T17:58:53.527Z,100508.50
2022-08-17T18:01:42.016Z,100523.06
2022-08-17T18:04:41.572Z,100523.06
2022-08-17T18:07:20.019Z,100512.81
2022-08-17T18:10:04.318Z,100515.81
2022-08-17T18:13:12.160Z,100521.34
2022-08-17T18:23:54.935Z,100509.91
2022-08-17T18:27:08.655Z,100516.94
2022-08-17T18:29:48.950Z,100512.03
2022-08-17T18:32:23.001Z,100521.13
2022-08-17T18:35:02.066Z,100520.81
2022-08-17T18:37:37.802Z,100525.22
2022-08-17T18:40:29.448Z,100519.72
2022-08-17T18:43:24.598Z,100515.31
2022-08-17T18:45:57.929Z,100513.66
2022-08-17T18:48:39.757Z,100508.69
2022-08-17T18:51:53.082Z,100503.22
2022-08-17T18:54:25.279Z,100504.66
2022-08-17T18:57:02.330Z,100507.69
2022-08-17T18:59:45.297Z,100514.41
2022-08-17T19:02:45.666Z,100508.97
2022-08-17T19:05:40.123Z,100510.63
2022-08-17T19:08:33.318Z,100508.47
2022-08-17T19:11:07.791Z,100514.25
2022-08-17T19:13:45.509Z,100522.91
2022-08-17T19:16:32.657Z,100521.16
2022-08-17T19:19:32.513Z,100516.44
2022-08-17T19:22:39.733Z,100522.06
2022-08-17T19:25:17.672Z,100524.81
2022-08-17T19:27:57.289Z,100523.16
2022-08-17T19:30:28.123Z,100520.94
2022-08-17T19:32:59.414Z,100525.84
2022-08-17T19:35:40.127Z,100523.09
2022-08-17T19:38:19.402Z,100531.31
2022-08-17T19:41:28.481Z,100523.91
2022-08-17T19:44:09.022Z,100526.91
2022-08-17T19:46:56.397Z,100523.06
2022-08-17T19:49:57.357Z,100523.16
2022-08-17T19:53:01.642Z,100525.38
2022-08-17T19:55:53.028Z,100520.94
2022-08-17T19:59:08.901Z,100527.03
2022-08-17T20:02:00.976Z,100532.28
2022-08-17T20:04:41.256Z,100541.34
2022-08-17T20:07:18.506Z,100539.13
2022-08-17T20:10:04.425Z,100536.06
2022-08-17T20:12:39.132Z,100536.97
2022-08-17T20:15:25.608Z,100542.22
2022-08-17T20:17:57.641Z,100538.72
2022-08-17T20:20:49.365Z,100537.53
2022-08-17T20:23:30.287Z,100539.41
2022-08-17T20:26:15.917Z,100534.44
2022-08-17T20:29:10.045Z,100537.19
2022-08-17T20:31:44.911Z,100545.47
2022-08-17T20:34:37.309Z,100536.88
2022-08-17T20:37:18.055Z,100546.78
2022-08-17T20:39:58.089Z,100543.50
2022-08-17T20:42:27.273Z,100543.19
2022-08-17T20:45:05.931Z,100545.13
2022-08-17T20:48:15.190Z,100544.22
2022-08-17T20:50:51.628Z,100536.78
2022-08-17T20:54:01.216Z,100537.88
2022-08-17T20:56:51.538Z,100540.09
2022-08-17T20:59:32.894Z,100528.91
2022-08-17T21:02:18.057Z,100539.63
2022-08-17T21:05:01.309Z,100535.97
2022-08-17T21:07:42.765Z,100532.97
2022-08-17T21:10:30.862Z,100535.78
2022-08-17T21:13:15.332Z,100534.47
2022-08-17T21:15:59.705Z,100530.94
2022-08-17T21:18:57.754Z,100531.50
2022-08-17T21:22:03.651Z,100527.13
2022-08-17T21:24:31.813Z,100536.53
2022-08-17T21:27:25.657Z,100535.16
2022-08-17T21:30:34.281Z,100531.50
2022-08-17T21:33:35.459Z,100528.47
2022-08-17T21:36:12.179Z,100535.34
2022-08-17T21:38:48.085Z,100533.41
2022-08-17T21:41:45.664Z,100534.22
2022-08-17T21:44:39.799Z,100531.75
2022-08-17T21:47:26.827Z,100530.69
2022-08-17T21:50:13.170Z,100525.50
2022-08-17T21:52:40.966Z,100522.72
2022-08-17T21:55:31.070Z,100527.97
2022-08-17T21:58:13.390Z,100519.47
2022-08-17T22:00:44.932Z,100516.69
2022-08-17T22:03:26.041Z,100513.06
2022-08-17T22:05:53.717Z,100519.66
2022-08-17T22:08:24.728Z,100529.34
2022-08-17T22:11:01.587Z,100521.63
2022-08-17T22:13:30.035Z,100526.34
2022-08-17T22:16:28.122Z,100526.03
2022-08-17T22:19:04.926Z,100530.38
2022-08-17T22:21:34.295Z,100538.13
2022-08-17T22:24:21.927Z,100533.72
2022-08-17T22:27:11.743Z,100537.63
2022-08-17T22:29:48.219Z,100538.75
2022-08-17T22:32:37.461Z,100537.66
2022-08-17T22:35:43.303Z,100536.00
2022-08-17T22:38:22.670Z,100537.13
2022-08-17T22:40:57.946Z,100536.84
2022-08-17T22:43:28.858Z,100537.69
2022-08-17T22:46:00.270Z,100531.34
2022-08-17T22:48:31.326Z,100536.81
2022-08-17T22:51:12.809Z,100527.78
2022-08-17T22:54:16.455Z,100520.63
2022-08-17T22:57:34.487Z,100515.69
2022-08-17T23:00:05.524Z,100525.31
2022-08-17T23:02:35.647Z,100523.91
2022-08-17T23:05:21.847Z,100523.38
2022-08-17T23:07:52.714Z,100526.97
2022-08-17T23:10:21.980Z,100522.84
2022-08-17T23:12:50.544Z,100523.66
2022-08-17T23:15:22.489Z,100519.81
2022-08-17T23:17:51.434Z,100522.25
2022-08-17T23:20:22.476Z,100527.22
2022-08-17T23:22:52.736Z,100529.97
2022-08-17T23:25:32.586Z,100534.94
2022-08-17T23:28:04.350Z,100530.22
2022-08-17T23:30:35.950Z,100537.94
2022-08-17T23:33:17.748Z,100531.88
2022-08-17T23:35:45.909Z,100531.06
2022-08-17T23:38:14.813Z,100534.63
2022-08-17T23:40:42.991Z,100538.47
2022-08-17T23:43:24.760Z,100539.59
2022-08-17T23:46:03.864Z,100535.47
2022-08-17T23:48:36.793Z,100531.63
2022-08-17T23:51:10.142Z,100530.75
2022-08-17T23:53:45.320Z,100536.28
2022-08-17T23:56:13.076Z,100540.41
2022-08-17T23:58:42.677Z,100536.00
